Time;durP1;ratioP1;P1;durP2;ratioP2;P2;SDS_P1;SDS_P2;PMS_P1;PMS_P2;Temp;Humidity;BMP_temperature;BMP_pressure;BME280_temperature;BME280_humidity;BME280_pressure;Samples;Min_cycle;Max_cycle;Signal;HPM_P1;HPM_P2
2023/07/26 11:56:38;;;;;;;;;;;;;;;21.35;53.72;96983.97;4242953;27;10242;-68
2023/07/26 11:58:43;;;;;;;;;;;;;;;21.65;53.11;96988.78;4239355;27;5653;-68
2023/07/26 12:00:48;;;;;;;;;;;;;;;21.90;52.50;96990.81;4245522;27;5645;-68
2023/07/26 12:02:51;;;;;;;;;;;;;;;22.08;52.14;96985.03;4242213;27;5986;-68
2023/07/26 12:05:16;;;;;;;;;;;;;;;22.25;52.27;96990.19;4227955;27;6023;-67
2023/07/26 12:07:18;;;;;;;;;;;;;;;22.36;51.97;96969.50;4231703;27;5984;-66
2023/07/26 12:09:21;;;;;;;;;;;;;;;22.44;51.20;96979.78;4240968;27;5868;-69
2023/07/26 12:11:23;;;;;;;;;;;;;;;22.50;51.16;96975.22;4236392;27;5901;-65
2023/07/26 12:13:27;;;;;;;;;;;;;;;22.55;51.33;96976.06;4237738;27;5694;-65
2023/07/26 12:15:30;;;;;;;;;;;;;;;22.59;50.62;96966.34;4237391;27;5756;-64
2023/07/26 12:17:33;;;;;;;;;;;;;;;22.65;50.80;96970.69;4233216;27;5895;-64
2023/07/26 12:19:37;;;;;;;;;;;;;;;22.72;50.22;96969.63;4242878;27;5658;-65
2023/07/26 12:21:48;;;;;;;;;;;;;;;22.76;49.96;96970.69;4238969;27;5733;-65
2023/07/26 12:23:55;;;;;;;;;;;;;;;22.80;50.26;96974.50;4233267;27;5788;-65
2023/07/26 12:26:05;;;;;;;;;;;;;;;22.83;49.53;96977.47;4244844;27;6641;-65
2023/07/26 12:28:08;;;;;;;;;;;;;;;22.86;49.63;96981.53;4247391;27;5703;-65
2023/07/26 12:30:19;;;;;;;;;;;;;;;22.85;49.45;96974.50;4243131;27;5867;-66
2023/07/26 12:32:22;;;;;;;;;;;;;;;22.88;49.16;96972.13;4241872;27;6559;-66
2023/07/26 12:34:32;;;;;;;;;;;;;;;22.88;49.08;96980.22;4241658;27;5741;-65
2023/07/26 12:36:47;;;;;;;;;;;;;;;22.92;48.84;96975.09;4244502;27;5630;-66
2023/07/26 12:38:54;;;;;;;;;;;;;;;22.92;48.93;96975.09;4249874;27;5641;-69
2023/07/26 12:41:00;;;;;;;;;;;;;;;22.92;48.55;96977.78;4241615;27;7680;-65
2023/07/26 12:43:26;;;;;;;;;;;;;;;22.94;48.48;96978.31;4243208;27;5655;-68
2023/07/26 12:45:34;;;;;;;;;;;;;;;22.99;48.27;96980.19;4242484;27;5696;-65
2023/07/26 12:47:38;;;;;;;;;;;;;;;23.02;48.13;96969.69;4239268;27;5645;-65
2023/07/26 12:49:45;;;;;;;;;;;;;;;23.03;47.73;96971.31;4236220;27;5829;-66
2023/07/26 12:51:49;;;;;;;;;;;;;;;23.06;47.63;96967.28;4237430;27;5646;-65
2023/07/26 12:53:53;;;;;;;;;;;;;;;23.10;47.59;96971.84;4238735;27;5646;-67
2023/07/26 12:55:56;;;;;;;;;;;;;;;23.13;47.20;96959.75;4244403;27;5646;-67
2023/07/26 12:57:59;;;;;;;;;;;;;;;23.14;46.97;96962.16;4230395;27;5650;-66
2023/07/26 13:00:01;;;;;;;;;;;;;;;23.16;47.16;96965.41;4234926;28;5877;-72
2023/07/26 13:02:06;;;;;;;;;;;;;;;23.18;47.06;96963.22;4233704;27;5596;-65
2023/07/26 13:04:09;;;;;;;;;;;;;;;23.19;46.82;96964.84;4221751;27;5655;-66
2023/07/26 13:06:13;;;;;;;;;;;;;;;23.15;46.60;96957.56;4225025;27;5744;-66
2023/07/26 13:08:16;;;;;;;;;;;;;;;23.13;46.61;96960.53;4229460;28;5890;-66
2023/07/26 13:10:19;;;;;;;;;;;;;;;23.14;46.53;96967.56;4231893;28;5785;-66
2023/07/26 13:12:24;;;;;;;;;;;;;;;23.13;46.22;96965.94;4230642;27;6024;-66
2023/07/26 13:14:27;;;;;;;;;;;;;;;23.11;46.34;96970.78;4233276;27;7696;-65
2023/07/26 13:16:31;;;;;;;;;;;;;;;23.13;46.31;96965.94;4227453;28;5725;-71
2023/07/26 13:18:37;;;;;;;;;;;;;;;23.15;46.35;96969.16;4227348;27;5830;-79
2023/07/26 13:20:40;;;;;;;;;;;;;;;23.18;46.27;96963.22;4229712;27;5683;-70
2023/07/26 13:22:43;;;;;;;;;;;;;;;23.17;46.10;96967.00;4226312;27;5742;-64
2023/07/26 13:24:46;;;;;;;;;;;;;;;23.17;45.58;96964.31;4228597;27;5733;-64
2023/07/26 13:26:49;;;;;;;;;;;;;;;23.20;45.97;96963.75;4227833;27;5945;-64
2023/07/26 13:28:52;;;;;;;;;;;;;;;23.21;45.78;96961.88;4219239;27;5674;-65
2023/07/26 13:30:56;;;;;;;;;;;;;;;23.22;45.76;96963.53;4222681;27;5888;-64
2023/07/26 13:32:59;;;;;;;;;;;;;;;23.22;45.33;96967.03;4221460;27;7508;-65
2023/07/26 13:35:05;;;;;;;;;;;;;;;23.23;45.62;96965.13;4222775;27;5822;-65
2023/07/26 13:37:08;;;;;;;;;;;;;;;23.27;45.56;96962.69;4222625;27;6023;-65
2023/07/26 13:39:11;;;;;;;;;;;;;;;23.28;45.06;96962.44;4229330;28;5999;-65
2023/07/26 13:41:14;;;;;;;;;;;;;;;23.30;45.20;96960.25;4223737;27;5745;-66
2023/07/26 13:43:16;;;;;;;;;;;;;;;23.33;45.10;96964.31;4234538;27;5646;-66
2023/07/26 13:45:19;;;;;;;;;;;;;;;23.33;45.20;96969.69;4234371;27;7679;-65
2023/07/26 13:47:22;;;;;;;;;;;;;;;23.33;44.83;96972.38;4229596;28;5642;-66
2023/07/26 13:49:25;;;;;;;;;;;;;;;23.30;45.23;96965.66;4229815;28;5778;-65
2023/07/26 13:51:29;;;;;;;;;;;;;;;23.28;44.76;96972.41;4226420;27;5653;-65
2023/07/26 13:53:32;;;;;;;;;;;;;;;23.27;45.03;96970.78;4224206;27;5741;-65
2023/07/26 13:55:35;;;;;;;;;;;;;;;23.28;44.87;96965.13;4229381;27;5788;-69
2023/07/26 13:57:38;;;;;;;;;;;;;;;23.22;44.72;96964.31;4228427;27;5084;-70
2023/07/26 13:59:40;;;;;;;;;;;;;;;23.22;44.67;96961.63;4221695;27;5736;-72
2023/07/26 14:01:42;;;;;;;;;;;;;;;23.23;44.29;96960.56;4222758;27;6693;-70
2023/07/26 14:03:45;;;;;;;;;;;;;;;23.25;44.55;96962.97;4225482;27;5794;-70
2023/07/26 14:05:48;;;;;;;;;;;;;;;23.28;44.33;96965.13;4229869;27;5971;-71
2023/07/26 14:07:52;;;;;;;;;;;;;;;23.31;44.53;96966.47;4231254;27;5673;-70
2023/07/26 14:09:55;;;;;;;;;;;;;;;23.32;43.99;96954.59;4230947;28;5745;-71
2023/07/26 14:11:59;;;;;;;;;;;;;;;23.31;43.91;96958.38;4219464;27;5730;-69
2023/07/26 14:14:03;;;;;;;;;;;;;;;23.31;43.92;96961.06;4226889;27;6364;-70
2023/07/26 14:16:06;;;;;;;;;;;;;;;23.29;44.21;96965.94;4214161;27;5781;-70
2023/07/26 14:18:24;;;;;;;;;;;;;;;23.27;43.83;96960.81;4219173;27;5676;-70
2023/07/26 14:20:27;;;;;;;;;;;;;;;23.24;43.74;96964.88;4221877;27;5662;-71
2023/07/26 14:22:30;;;;;;;;;;;;;;;23.21;43.60;96956.47;4229471;27;5761;-70
2023/07/26 14:24:34;;;;;;;;;;;;;;;23.20;43.97;96965.66;4227877;27;5794;-66
2023/07/26 14:26:37;;;;;;;;;;;;;;;23.22;43.55;96958.94;4223786;27;5824;-64
2023/07/26 14:28:40;;;;;;;;;;;;;;;23.20;43.84;96958.38;4226102;27;5798;-64
2023/07/26 14:30:43;;;;;;;;;;;;;;;23.19;43.52;96964.84;4225589;27;5740;-64
2023/07/26 14:32:46;;;;;;;;;;;;;;;23.18;43.62;96955.13;4227381;28;5789;-64
2023/07/26 14:34:49;;;;;;;;;;;;;;;23.16;43.93;96964.59;4227086;27;5767;-64
2023/07/26 14:36:52;;;;;;;;;;;;;;;23.17;43.73;96961.63;4230947;27;5725;-64
2023/07/26 14:38:55;;;;;;;;;;;;;;;23.17;43.89;96960.81;4221670;27;5801;-64
2023/07/26 14:40:58;;;;;;;;;;;;;;;23.19;43.92;96964.03;4225110;27;5709;-64
2023/07/26 14:43:02;;;;;;;;;;;;;;;23.19;43.78;96964.84;4229809;27;5713;-64
2023/07/26 14:45:06;;;;;;;;;;;;;;;23.20;43.49;96955.66;4227678;27;5846;-64
2023/07/26 14:47:09;;;;;;;;;;;;;;;23.22;43.22;96947.34;4229673;27;5798;-65
2023/07/26 14:49:11;;;;;;;;;;;;;;;23.21;43.29;96935.72;4221227;27;5820;-65
2023/07/26 14:51:14;;;;;;;;;;;;;;;23.24;43.17;96947.88;4221166;27;5913;-65
2023/07/26 14:53:17;;;;;;;;;;;;;;;23.21;43.29;96946.50;4226445;27;5628;-65
2023/07/26 14:55:20;;;;;;;;;;;;;;;23.19;43.40;96940.56;4221466;27;5674;-65
2023/07/26 14:57:24;;;;;;;;;;;;;;;23.20;42.98;96944.06;4226990;27;6124;-61
2023/07/26 14:59:27;;;;;;;;;;;;;;;23.22;42.93;96942.75;4218872;27;8015;-61
2023/07/26 15:01:30;;;;;;;;;;;;;;;23.24;42.71;96939.78;4219796;27;5866;-62
2023/07/26 15:03:33;;;;;;;;;;;;;;;23.24;43.09;96937.91;4227148;28;7342;-62
2023/07/26 15:05:37;;;;;;;;;;;;;;;23.27;42.97;96946.50;4220596;27;5773;-62
2023/07/26 15:07:40;;;;;;;;;;;;;;;23.27;42.44;96943.81;4225207;28;7695;-62
2023/07/26 15:09:43;;;;;;;;;;;;;;;23.26;42.60;96936.81;4231497;27;5638;-61
2023/07/26 15:11:45;;;;;;;;;;;;;;;23.28;42.21;96940.03;4227609;27;5790;-61
2023/07/26 15:13:50;;;;;;;;;;;;;;;23.30;42.52;96937.88;4229205;28;5786;-62
2023/07/26 15:15:53;;;;;;;;;;;;;;;23.30;42.01;96937.88;4223068;27;5790;-69
2023/07/26 15:17:55;;;;;;;;;;;;;;;23.34;42.17;96944.38;4229144;27;5622;-68
2023/07/26 15:19:58;;;;;;;;;;;;;;;23.36;41.86;96936.81;4221375;27;5696;-91
2023/07/26 15:22:01;;;;;;;;;;;;;;;23.39;41.89;96945.16;4225124;27;6449;-68
2023/07/26 15:24:05;;;;;;;;;;;;;;;23.41;42.07;96936.78;4226144;27;5726;-73
2023/07/26 15:26:06;;;;;;;;;;;;;;;23.41;41.46;96934.91;4226845;27;5650;-76
2023/07/26 15:28:10;;;;;;;;;;;;;;;23.39;41.87;96931.66;4218838;27;5848;-72
2023/07/26 15:30:14;;;;;;;;;;;;;;;23.41;41.54;96932.19;4221188;27;5646;-78
2023/07/26 15:32:17;;;;;;;;;;;;;;;23.40;41.38;96930.59;4220612;28;5913;-61
2023/07/26 15:34:20;;;;;;;;;;;;;;;23.40;41.34;96935.19;4218384;27;5778;-76
2023/07/26 15:36:23;;;;;;;;;;;;;;;23.39;41.59;96933.56;4214582;27;5655;-71
2023/07/26 15:38:26;;;;;;;;;;;;;;;23.37;41.27;96931.13;4217496;27;5820;-73
2023/07/26 15:40:27;;;;;;;;;;;;;;;23.37;41.11;96933.03;4219896;27;5816;-70
2023/07/26 15:42:33;;;;;;;;;;;;;;;23.37;41.34;96933.03;4227774;27;5797;-71
2023/07/26 15:44:35;;;;;;;;;;;;;;;23.38;41.00;96934.66;4227439;28;5737;-70
2023/07/26 15:46:41;;;;;;;;;;;;;;;23.37;41.31;96939.22;4226325;28;5642;-73
2023/07/26 15:49:05;;;;;;;;;;;;;;;23.37;41.45;96939.22;4228587;28;5816;-79
2023/07/26 15:51:08;;;;;;;;;;;;;;;23.38;41.38;96934.66;4224656;27;5649;-68
2023/07/26 15:53:11;;;;;;;;;;;;;;;23.36;41.21;96931.41;4226322;27;5854;-75
2023/07/26 15:55:14;;;;;;;;;;;;;;;23.37;41.36;96933.84;4222169;28;6324;-74
2023/07/26 15:57:17;;;;;;;;;;;;;;;23.38;40.93;96934.66;4225839;28;5802;-76
2023/07/26 15:59:20;;;;;;;;;;;;;;;23.39;41.21;96925.47;4227192;28;5668;-62
2023/07/26 16:01:23;;;;;;;;;;;;;;;23.39;41.21;96925.47;4221929;27;5756;-62
2023/07/26 16:03:28;;;;;;;;;;;;;;;23.42;40.75;96922.22;4229317;28;5119;-62
2023/07/26 16:05:32;;;;;;;;;;;;;;;23.42;41.01;96922.22;4231023;27;5754;-62
2023/07/26 16:07:38;;;;;;;;;;;;;;;23.41;41.17;96916.00;4231895;28;5655;-62
2023/07/26 16:09:44;;;;;;;;;;;;;;;23.42;41.16;96919.53;4226874;27;5755;-62
2023/07/26 16:11:47;;;;;;;;;;;;;;;23.43;40.75;96911.16;4212091;27;5758;-62
2023/07/26 16:13:53;;;;;;;;;;;;;;;23.41;40.80;96902.53;4225525;27;5756;-62
2023/07/26 16:16:16;;;;;;;;;;;;;;;23.41;40.68;96901.72;4225123;27;5762;-62
2023/07/26 16:18:23;;;;;;;;;;;;;;;23.40;40.35;96900.91;4226015;28;5643;-61
2023/07/26 16:20:30;;;;;;;;;;;;;;;23.41;40.66;96897.13;4224273;28;6435;-61
2023/07/26 16:22:33;;;;;;;;;;;;;;;23.43;40.12;96900.34;4228823;28;5653;-61
2023/07/26 16:24:36;;;;;;;;;;;;;;;23.44;40.26;96893.91;4229858;28;5630;-61
2023/07/26 16:26:39;;;;;;;;;;;;;;;23.45;40.49;96886.63;4225614;28;5737;-60
2023/07/26 16:28:42;;;;;;;;;;;;;;;23.46;40.34;96888.25;4227440;28;5663;-61
2023/07/26 16:30:45;;;;;;;;;;;;;;;23.46;39.70;96889.03;4219584;27;5784;-61
2023/07/26 16:32:47;;;;;;;;;;;;;;;23.47;40.10;96885.25;4229991;28;5761;-61
2023/07/26 16:34:50;;;;;;;;;;;;;;;23.49;39.92;96882.28;4222768;27;5727;-61
2023/07/26 16:36:54;;;;;;;;;;;;;;;23.50;39.86;96883.91;4217282;28;5659;-61
2023/07/26 16:38:57;;;;;;;;;;;;;;;23.50;40.00;96884.72;4230054;28;5827;-61
2023/07/26 16:41:00;;;;;;;;;;;;;;;23.50;39.90;96883.91;4234224;28;5741;-61
2023/07/26 16:43:02;;;;;;;;;;;;;;;23.51;39.78;96880.13;4223579;28;5837;-61
2023/07/26 16:45:07;;;;;;;;;;;;;;;23.51;40.24;96885.50;4231223;28;7141;-61
2023/07/26 16:47:10;;;;;;;;;;;;;;;23.53;40.28;96883.34;4230657;28;5638;-61
2023/07/26 16:49:13;;;;;;;;;;;;;;;23.53;39.65;96875.25;4225462;28;5802;-61
2023/07/26 16:51:16;;;;;;;;;;;;;;;23.52;40.06;96877.16;4227612;28;5654;-61
2023/07/26 16:53:20;;;;;;;;;;;;;;;23.53;39.88;96876.06;4229870;28;5666;-61
2023/07/26 16:55:22;;;;;;;;;;;;;;;23.52;40.10;96882.53;4232744;28;5752;-61
2023/07/26 16:57:25;;;;;;;;;;;;;;;23.49;39.99;96877.69;4232804;28;5745;-62
2023/07/26 16:59:29;;;;;;;;;;;;;;;23.48;40.21;96880.66;4234123;28;5646;-62
2023/07/26 17:01:32;;;;;;;;;;;;;;;23.47;39.97;96879.06;4232691;28;5816;-62
2023/07/26 17:03:36;;;;;;;;;;;;;;;23.47;39.92;96876.38;4223351;28;5762;-62
2023/07/26 17:05:39;;;;;;;;;;;;;;;23.49;39.97;96872.31;4233088;28;5755;-62
2023/07/26 17:07:42;;;;;;;;;;;;;;;23.49;40.32;96874.19;4233416;28;5680;-62
2023/07/26 17:09:47;;;;;;;;;;;;;;;23.50;40.33;96881.19;4233846;28;5828;-62
2023/07/26 17:11:49;;;;;;;;;;;;;;;23.48;40.32;96877.97;4228577;28;5769;-63
2023/07/26 17:13:52;;;;;;;;;;;;;;;23.48;39.80;96880.66;4227402;27;5654;-62
2023/07/26 17:15:55;;;;;;;;;;;;;;;23.47;40.45;96879.06;4232571;28;5757;-63
2023/07/26 17:17:58;;;;;;;;;;;;;;;23.48;40.21;96877.97;4230114;28;5693;-63
2023/07/26 17:20:01;;;;;;;;;;;;;;;23.48;40.21;96873.38;4231372;28;5733;-63
2023/07/26 17:22:04;;;;;;;;;;;;;;;23.48;39.88;96872.59;4234248;28;7122;-63
2023/07/26 17:24:08;;;;;;;;;;;;;;;23.48;39.86;96877.97;4224769;28;5927;-63
2023/07/26 17:26:12;;;;;;;;;;;;;;;23.47;40.03;96876.38;4232832;28;5823;-63
2023/07/26 17:28:15;;;;;;;;;;;;;;;23.48;40.24;96883.38;4232826;28;5597;-63
2023/07/26 17:30:20;;;;;;;;;;;;;;;23.50;40.23;96879.31;4234605;28;5654;-62
2023/07/26 17:32:23;;;;;;;;;;;;;;;23.50;40.34;96883.91;4234326;28;5657;-62
2023/07/26 17:34:25;;;;;;;;;;;;;;;23.50;39.97;96883.91;4230120;28;5612;-61
2023/07/26 17:36:29;;;;;;;;;;;;;;;23.51;40.22;96875.53;4230654;28;5666;-61
2023/07/26 17:38:33;;;;;;;;;;;;;;;23.51;40.14;96877.41;4234337;28;5715;-63
2023/07/26 17:40:35;;;;;;;;;;;;;;;23.51;40.04;96877.41;4234231;28;5750;-62
2023/07/26 17:42:40;;;;;;;;;;;;;;;23.52;40.16;96876.34;4234099;28;5773;-62
2023/07/26 17:44:43;;;;;;;;;;;;;;;23.52;40.13;96882.53;4233911;28;5654;-62
2023/07/26 17:46:45;;;;;;;;;;;;;;;23.52;39.84;96885.22;4233564;28;5813;-62
2023/07/26 17:48:48;;;;;;;;;;;;;;;23.52;40.15;96877.16;4233620;28;5735;-62
2023/07/26 17:50:53;;;;;;;;;;;;;;;23.54;39.65;96882.25;4230013;28;5758;-61
2023/07/26 17:52:57;;;;;;;;;;;;;;;23.55;39.98;96886.56;4230226;28;5646;-60
2023/07/26 17:55:00;;;;;;;;;;;;;;;23.55;40.09;96889.28;4233777;28;5638;-60
2023/07/26 17:57:03;;;;;;;;;;;;;;;23.54;39.72;96877.66;4234212;28;5867;-61
2023/07/26 17:59:07;;;;;;;;;;;;;;;23.55;39.62;96886.56;4232847;28;5738;-61
2023/07/26 18:01:10;;;;;;;;;;;;;;;23.56;39.74;96881.97;4234961;28;6449;-62
2023/07/26 18:03:13;;;;;;;;;;;;;;;23.58;39.51;96896.88;4233969;28;5885;-61
2023/07/26 18:05:16;;;;;;;;;;;;;;;23.58;39.97;96896.88;4235157;28;5620;-62
2023/07/26 18:07:18;;;;;;;;;;;;;;;23.60;39.55;96902.81;4234869;28;5643;-62
2023/07/26 18:09:21;;;;;;;;;;;;;;;23.62;39.54;96902.53;4230079;28;5693;-62
2023/07/26 18:11:24;;;;;;;;;;;;;;;23.62;39.67;96907.91;4229893;28;5465;-62
2023/07/26 18:13:27;;;;;;;;;;;;;;;23.62;39.73;96897.94;4234742;28;5632;-63
2023/07/26 18:15:31;;;;;;;;;;;;;;;23.62;39.51;96897.94;4232334;28;5655;-62
2023/07/26 18:17:35;;;;;;;;;;;;;;;23.63;39.19;96899.53;4229790;28;5658;-62
2023/07/26 18:19:38;;;;;;;;;;;;;;;23.63;39.24;96901.44;4228448;28;5709;-62
2023/07/26 18:21:41;;;;;;;;;;;;;;;23.63;39.45;96902.25;4228315;28;5862;-61
2023/07/26 18:23:44;;;;;;;;;;;;;;;23.63;39.20;96896.84;4229059;28;5821;-62
2023/07/26 18:25:46;;;;;;;;;;;;;;;23.63;39.28;96907.66;4227736;28;5601;-63
2023/07/26 18:27:50;;;;;;;;;;;;;;;23.62;39.57;96900.63;4231368;27;5898;-61
2023/07/26 18:29:54;;;;;;;;;;;;;;;23.62;39.42;96903.31;4226222;28;5871;-62
2023/07/26 18:31:59;;;;;;;;;;;;;;;23.61;39.51;96912.50;4234416;28;5761;-61
2023/07/26 18:34:01;;;;;;;;;;;;;;;23.61;39.46;96909.81;4234430;28;5725;-62
2023/07/26 18:36:05;;;;;;;;;;;;;;;23.60;39.52;96907.38;4234520;28;5653;-61
2023/07/26 18:38:08;;;;;;;;;;;;;;;23.59;39.17;96909.28;4226040;28;5671;-61
2023/07/26 18:40:11;;;;;;;;;;;;;;;23.58;39.15;96918.47;4234478;28;5800;-62
2023/07/26 18:42:15;;;;;;;;;;;;;;;23.58;39.56;96926.56;4227466;28;5695;-62
2023/07/26 18:44:17;;;;;;;;;;;;;;;23.57;39.51;96930.31;4228344;28;5702;-62
2023/07/26 18:46:21;;;;;;;;;;;;;;;23.57;39.16;96911.41;4231907;28;5659;-63
2023/07/26 18:48:25;;;;;;;;;;;;;;;23.57;39.60;96905.22;4227065;28;5650;-63
2023/07/26 18:50:28;;;;;;;;;;;;;;;23.56;39.79;96909.81;4229448;27;6339;-63
2023/07/26 18:52:31;;;;;;;;;;;;;;;23.54;39.60;96915.44;4230500;27;5768;-64
2023/07/26 18:54:34;;;;;;;;;;;;;;;23.53;39.66;96904.94;4226882;27;5741;-63
2023/07/26 18:56:37;;;;;;;;;;;;;;;23.52;39.48;96911.41;4230630;27;6349;-61
2023/07/26 18:58:41;;;;;;;;;;;;;;;23.49;39.70;96904.69;4222535;27;5781;-61
2023/07/26 19:00:44;;;;;;;;;;;;;;;23.50;39.73;96910.88;4222698;28;5741;-61
2023/07/26 19:02:47;;;;;;;;;;;;;;;23.49;39.77;96904.69;4221515;28;5777;-62
2023/07/26 19:04:51;;;;;;;;;;;;;;;23.49;40.04;96906.56;4227899;28;5658;-61
2023/07/26 19:06:54;;;;;;;;;;;;;;;23.47;39.68;96904.16;4225567;28;5640;-62
2023/07/26 19:08:57;;;;;;;;;;;;;;;23.47;39.74;96911.44;4224769;28;5638;-61
2023/07/26 19:11:00;;;;;;;;;;;;;;;23.46;39.84;96904.44;4229837;28;5780;-62
2023/07/26 19:13:03;;;;;;;;;;;;;;;23.46;39.68;96909.81;4230247;28;5709;-62
2023/07/26 19:15:07;;;;;;;;;;;;;;;23.46;40.12;96915.22;4229529;28;5625;-62
2023/07/26 19:17:09;;;;;;;;;;;;;;;23.45;39.89;96917.09;4226080;27;5711;-61
2023/07/26 19:19:12;;;;;;;;;;;;;;;23.45;39.96;96919.00;4228956;28;5658;-61
2023/07/26 19:21:17;;;;;;;;;;;;;;;23.44;40.01;96911.97;4229201;28;5669;-63
2023/07/26 19:23:20;;;;;;;;;;;;;;;23.43;39.89;96919.25;4230458;28;6857;-63
2023/07/26 19:25:22;;;;;;;;;;;;;;;23.42;39.90;96914.94;4224956;28;5667;-63
2023/07/26 19:27:25;;;;;;;;;;;;;;;23.42;39.76;96914.13;4228493;28;5940;-62
2023/07/26 19:29:30;;;;;;;;;;;;;;;23.41;39.90;96912.50;4230460;28;5736;-64
2023/07/26 19:31:32;;;;;;;;;;;;;;;23.40;39.75;96919.78;4222137;27;5796;-63
2023/07/26 19:33:35;;;;;;;;;;;;;;;23.40;39.68;96927.09;4232182;27;5763;-63
2023/07/26 19:35:38;;;;;;;;;;;;;;;23.39;40.01;96930.88;4227545;27;5604;-63
2023/07/26 19:37:42;;;;;;;;;;;;;;;23.37;39.83;96923.03;4229406;28;6651;-62
2023/07/26 19:39:45;;;;;;;;;;;;;;;23.38;39.85;96926.53;4232378;28;5654;-62
2023/07/26 19:41:48;;;;;;;;;;;;;;;23.37;39.78;96928.44;4232812;28;5605;-63
2023/07/26 19:43:51;;;;;;;;;;;;;;;23.36;40.30;96936.81;4232724;28;5654;-62
2023/07/26 19:45:53;;;;;;;;;;;;;;;23.35;40.38;96927.91;4227528;28;5638;-62
2023/07/26 19:47:56;;;;;;;;;;;;;;;23.36;40.08;96939.50;4230561;28;5630;-62
2023/07/26 19:49:59;;;;;;;;;;;;;;;23.34;40.22;96944.38;4227455;28;5650;-62
2023/07/26 19:52:06;;;;;;;;;;;;;;;23.34;40.31;96941.66;4218103;28;5850;-85
2023/07/26 19:54:14;;;;;;;;;;;;;;;23.32;40.21;96941.09;4225354;27;5873;-70
2023/07/26 19:56:16;;;;;;;;;;;;;;;;;;4220099;27;5642;-70
2023/07/26 19:58:18;;;;;;;;;;;;;;;23.29;40.42;96941.66;4227265;27;6331;-69
2023/07/26 20:00:21;;;;;;;;;;;;;;;23.28;40.05;96937.34;4226391;27;5690;-67
2023/07/26 20:02:23;;;;;;;;;;;;;;;23.28;40.15;96930.06;4225711;27;5791;-70
2023/07/26 20:04:27;;;;;;;;;;;;;;;23.26;40.47;96932.22;4232680;28;5677;-70
2023/07/26 20:06:30;;;;;;;;;;;;;;;23.27;40.24;96938.44;4227219;28;5770;-71
2023/07/26 20:08:33;;;;;;;;;;;;;;;23.24;39.95;96937.09;4223097;27;5662;-72
2023/07/26 20:10:40;;;;;;;;;;;;;;;23.25;40.24;96936.00;4231642;27;5653;-67
2023/07/26 20:12:44;;;;;;;;;;;;;;;23.26;39.92;96936.81;4236412;28;5654;-68
2023/07/26 20:14:46;;;;;;;;;;;;;;;23.25;40.17;96936.00;4229625;27;5778;-68
2023/07/26 20:16:49;;;;;;;;;;;;;;;23.24;40.02;96935.19;4231010;27;5907;-69
2023/07/26 20:18:53;;;;;;;;;;;;;;;23.24;39.85;96929.00;4230297;27;5662;-65
2023/07/26 20:20:56;;;;;;;;;;;;;;;23.24;39.87;96929.81;4229972;27;5709;-71
2023/07/26 20:22:59;;;;;;;;;;;;;;;23.23;40.29;96936.28;4232941;28;5714;-72
2023/07/26 20:25:02;;;;;;;;;;;;;;;23.21;40.02;96938.41;4227957;27;5806;-63
2023/07/26 20:27:07;;;;;;;;;;;;;;;23.18;40.21;96933.56;4234777;27;5650;-62
2023/07/26 20:29:10;;;;;;;;;;;;;;;23.18;39.78;96935.44;4235578;28;5722;-68
2023/07/26 20:31:13;;;;;;;;;;;;;;;23.16;40.01;96933.03;4224458;27;5875;-64
2023/07/26 20:33:16;;;;;;;;;;;;;;;23.15;40.14;96933.31;4224516;27;5632;-71
2023/07/26 20:35:18;;;;;;;;;;;;;;;23.11;40.15;96932.25;4230565;28;5740;-63
2023/07/26 20:37:23;;;;;;;;;;;;;;;23.09;40.00;96929.78;4225397;27;5635;-64
2023/07/26 20:39:26;;;;;;;;;;;;;;;23.08;40.35;96930.88;4228719;27;5901;-63
2023/07/26 20:41:29;;;;;;;;;;;;;;;23.07;40.20;96929.25;4231224;28;5646;-63
2023/07/26 20:43:34;;;;;;;;;;;;;;;23.08;40.38;96933.56;4229142;27;5659;-65
2023/07/26 20:45:38;;;;;;;;;;;;;;;23.06;40.11;96933.03;4230233;27;5760;-69
2023/07/26 20:47:40;;;;;;;;;;;;;;;23.07;40.18;96933.84;4225601;27;6144;-70
2023/07/26 20:49:44;;;;;;;;;;;;;;;23.08;40.42;96944.34;4229889;27;5654;-73
2023/07/26 20:51:46;;;;;;;;;;;;;;;23.07;39.94;96934.66;4224773;28;6252;-64
2023/07/26 20:53:49;;;;;;;;;;;;;;;23.08;40.32;96936.25;4226690;27;5763;-63
2023/07/26 20:55:55;;;;;;;;;;;;;;;23.09;40.10;96931.66;4228760;28;5624;-63
2023/07/26 20:57:58;;;;;;;;;;;;;;;23.08;40.03;96936.25;4232172;27;5815;-66
2023/07/26 21:00:02;;;;;;;;;;;;;;;23.08;40.26;96932.75;4225481;27;5648;-67
2023/07/26 21:02:05;;;;;;;;;;;;;;;23.08;39.84;96927.38;4236590;27;5624;-67
2023/07/26 21:04:07;;;;;;;;;;;;;;;23.07;40.43;96934.66;4233070;28;5853;-66
2023/07/26 21:06:10;;;;;;;;;;;;;;;23.08;40.03;96932.75;4223269;27;5881;-66
2023/07/26 21:08:17;;;;;;;;;;;;;;;23.07;40.00;96937.34;4231575;27;5875;-71
2023/07/26 21:10:20;;;;;;;;;;;;;;;23.06;40.18;96927.63;4225679;27;5710;-68
2023/07/26 21:12:23;;;;;;;;;;;;;;;23.06;40.27;96918.75;4230440;28;5757;-66
2023/07/26 21:14:26;;;;;;;;;;;;;;;23.04;40.11;96919.00;4235440;28;5677;-66
2023/07/26 21:16:30;;;;;;;;;;;;;;;23.05;40.45;96922.50;4230189;28;5737;-66
2023/07/26 21:18:34;;;;;;;;;;;;;;;23.05;40.22;96920.63;4232857;28;5653;-66
2023/07/26 21:20:37;;;;;;;;;;;;;;;23.03;40.19;96917.41;4231781;28;5818;-66
2023/07/26 21:22:40;;;;;;;;;;;;;;;23.03;40.24;96913.91;4232945;28;5712;-66
2023/07/26 21:24:42;;;;;;;;;;;;;;;23.03;40.01;96914.69;4235955;28;5646;-66
2023/07/26 21:26:45;;;;;;;;;;;;;;;23.01;40.51;96914.16;4231793;27;5387;-66
2023/07/26 21:28:48;;;;;;;;;;;;;;;23.01;40.46;96914.16;4224631;28;6444;-66
2023/07/26 21:30:51;;;;;;;;;;;;;;;23.01;39.99;96913.34;4234310;28;5706;-66
2023/07/26 21:32:56;;;;;;;;;;;;;;;22.99;40.30;96904.69;4226643;28;5653;-66
2023/07/26 21:34:59;;;;;;;;;;;;;;;22.97;40.55;96899.59;4231162;28;5754;-66
2023/07/26 21:37:02;;;;;;;;;;;;;;;22.95;40.00;96899.06;4223689;28;5822;-66
2023/07/26 21:39:05;;;;;;;;;;;;;;;22.93;40.12;96902.03;4235839;28;5662;-66
2023/07/26 21:41:08;;;;;;;;;;;;;;;22.94;40.40;96902.81;4236014;28;5774;-66
2023/07/26 21:43:10;;;;;;;;;;;;;;;22.92;40.31;96902.28;4230604;28;6567;-66
2023/07/26 21:45:14;;;;;;;;;;;;;;;22.93;40.27;96901.22;4235543;28;5639;-66
2023/07/26 21:47:17;;;;;;;;;;;;;;;22.92;40.48;96905.81;4235632;28;5650;-66
2023/07/26 21:49:21;;;;;;;;;;;;;;;22.91;40.01;96908.78;4235823;28;5706;-66
2023/07/26 21:51:24;;;;;;;;;;;;;;;22.90;40.29;96907.97;4232212;27;5745;-66
2023/07/26 21:53:27;;;;;;;;;;;;;;;22.88;40.08;96898.53;4231354;28;5709;-66
2023/07/26 21:55:30;;;;;;;;;;;;;;;22.86;40.34;96901.47;4228460;28;5637;-66
2023/07/26 21:57:33;;;;;;;;;;;;;;;22.87;40.30;96910.38;4233160;28;5862;-66
2023/07/26 21:59:36;;;;;;;;;;;;;;;22.86;40.07;96908.75;4225569;28;5675;-66
2023/07/26 22:01:38;;;;;;;;;;;;;;;22.83;40.51;96906.56;4230605;28;5654;-66
2023/07/26 22:03:41;;;;;;;;;;;;;;;22.79;40.12;96906.31;4217287;28;7776;-66
2023/07/26 22:05:48;;;;;;;;;;;;;;;22.79;40.46;96906.31;4233581;28;5649;-66
2023/07/26 22:07:51;;;;;;;;;;;;;;;22.78;40.59;96904.69;4225053;28;5676;-66
2023/07/26 22:09:54;;;;;;;;;;;;;;;22.78;40.28;96903.88;4227227;28;5663;-66
2023/07/26 22:11:57;;;;;;;;;;;;;;;22.76;40.45;96900.63;4235601;28;5650;-66
2023/07/26 22:13:59;;;;;;;;;;;;;;;22.73;40.48;96901.97;4235693;27;5650;-66
2023/07/26 22:16:02;;;;;;;;;;;;;;;22.73;40.09;96896.59;4235165;28;5665;-66
2023/07/26 22:18:05;;;;;;;;;;;;;;;22.72;40.70;96905.75;4232583;28;6317;-66
2023/07/26 22:20:10;;;;;;;;;;;;;;;22.72;40.50;96907.63;4235512;28;5605;-66
2023/07/26 22:22:14;;;;;;;;;;;;;;;22.70;40.28;96907.09;4232613;27;6438;-66
2023/07/26 22:24:17;;;;;;;;;;;;;;;22.67;40.74;96906.56;4220218;28;5723;-66
2023/07/26 22:26:20;;;;;;;;;;;;;;;22.67;40.78;96903.88;4232602;28;5620;-66
2023/07/26 22:28:24;;;;;;;;;;;;;;;22.66;40.31;96898.75;4235190;28;5777;-66
2023/07/26 22:30:27;;;;;;;;;;;;;;;22.64;40.50;96887.41;4232408;28;5742;-65
2023/07/26 22:32:30;;;;;;;;;;;;;;;22.62;40.44;96905.72;4234782;28;5623;-66
2023/07/26 22:34:33;;;;;;;;;;;;;;;22.61;40.71;96899.53;4232059;28;5095;-66
2023/07/26 22:36:38;;;;;;;;;;;;;;;22.59;40.84;96899.00;4229226;28;5650;-66
2023/07/26 22:38:42;;;;;;;;;;;;;;;22.60;40.47;96900.59;4234740;28;5809;-66
2023/07/26 22:40:44;;;;;;;;;;;;;;;22.59;40.37;96899.00;4234195;28;5640;-66
2023/07/26 22:42:47;;;;;;;;;;;;;;;22.58;40.41;96889.28;4222659;28;6385;-66
2023/07/26 22:44:50;;;;;;;;;;;;;;;22.58;40.51;96899.25;4234156;28;5745;-66
2023/07/26 22:46:52;;;;;;;;;;;;;;;22.56;40.48;96896.84;4225079;27;5785;-66
2023/07/26 22:48:55;;;;;;;;;;;;;;;22.56;40.75;96896.03;4235421;27;5738;-66